sensor_id;sensor_type;location;lat;lon;timestamp;temperature;humidity
7030;DHT22;3556;53.500;10.176;2024-03-08T00:01:09;1.30;99.90
7030;DHT22;3556;53.500;10.176;2024-03-08T00:03:35;1.30;99.90
7030;DHT22;3556;53.500;10.176;2024-03-08T00:06:01;1.30;99.90
7030;DHT22;3556;53.500;10.176;2024-03-08T00:08:27;1.30;99.90
7030;DHT22;3556;53.500;10.176;2024-03-08T00:10:52;1.30;99.90
7030;DHT22;3556;53.500;10.176;2024-03-08T00:13:18;1.30;99.90
7030;DHT22;3556;53.500;10.176;2024-03-08T00:15:43;1.30;99.90
7030;DHT22;3556;53.500;10.176;2024-03-08T00:18:09;1.30;99.90
7030;DHT22;3556;53.500;10.176;2024-03-08T00:20:37;1.30;99.90
7030;DHT22;3556;53.500;10.176;2024-03-08T00:23:02;1.20;99.90
7030;DHT22;3556;53.500;10.176;2024-03-08T00:25:28;1.20;99.90
7030;DHT22;3556;53.500;10.176;2024-03-08T00:27:53;1.20;99.90
7030;DHT22;3556;53.500;10.176;2024-03-08T00:30:22;1.20;99.90
7030;DHT22;3556;53.500;10.176;2024-03-08T00:32:49;1.10;99.90
7030;DHT22;3556;53.500;10.176;2024-03-08T00:35:15;1.10;99.90
7030;DHT22;3556;53.500;10.176;2024-03-08T00:37:41;1.00;99.90
7030;DHT22;3556;53.500;10.176;2024-03-08T00:40:08;1.00;99.90
7030;DHT22;3556;53.500;10.176;2024-03-08T00:42:34;1.00;99.90
7030;DHT22;3556;53.500;10.176;2024-03-08T00:45:00;1.00;99.90
7030;DHT22;3556;53.500;10.176;2024-03-08T00:47:26;1.00;99.90
7030;DHT22;3556;53.500;10.176;2024-03-08T00:49:52;0.90;99.90
7030;DHT22;3556;53.500;10.176;2024-03-08T00:52:18;0.90;99.90
7030;DHT22;3556;53.500;10.176;2024-03-08T00:54:44;0.90;99.90
7030;DHT22;3556;53.500;10.176;2024-03-08T00:57:11;0.90;99.90
7030;DHT22;3556;53.500;10.176;2024-03-08T00:59:38;0.90;99.90
7030;DHT22;3556;53.500;10.176;2024-03-08T01:02:04;0.90;99.90
7030;DHT22;3556;53.500;10.176;2024-03-08T01:04:29;0.80;99.90
7030;DHT22;3556;53.500;10.176;2024-03-08T01:06:59;0.80;99.90
7030;DHT22;3556;53.500;10.176;2024-03-08T01:09:25;0.70;99.90
7030;DHT22;3556;53.500;10.176;2024-03-08T01:11:55;0.80;99.90
7030;DHT22;3556;53.500;10.176;2024-03-08T01:14:22;0.80;99.90
7030;DHT22;3556;53.500;10.176;2024-03-08T01:16:48;0.70;99.90
7030;DHT22;3556;53.500;10.176;2024-03-08T01:19:14;0.70;99.90
7030;DHT22;3556;53.500;10.176;2024-03-08T01:21:41;0.70;99.90
7030;DHT22;3556;53.500;10.176;2024-03-08T01:24:06;0.70;99.90
7030;DHT22;3556;53.500;10.176;2024-03-08T01:26:32;0.70;99.90
7030;DHT22;3556;53.500;10.176;2024-03-08T01:29:00;0.60;99.90
7030;DHT22;3556;53.500;10.176;2024-03-08T01:31:25;0.60;99.90
7030;DHT22;3556;53.500;10.176;2024-03-08T01:33:51;0.60;99.90
7030;DHT22;3556;53.500;10.176;2024-03-08T01:36:16;0.50;99.90
7030;DHT22;3556;53.500;10.176;2024-03-08T01:38:44;0.50;99.90
7030;DHT22;3556;53.500;10.176;2024-03-08T01:41:10;0.50;99.90
7030;DHT22;3556;53.500;10.176;2024-03-08T01:43:37;0.50;99.90
7030;DHT22;3556;53.500;10.176;2024-03-08T01:46:05;0.50;99.90
7030;DHT22;3556;53.500;10.176;2024-03-08T01:48:31;0.50;99.90
7030;DHT22;3556;53.500;10.176;2024-03-08T01:50:57;0.50;99.90
7030;DHT22;3556;53.500;10.176;2024-03-08T01:53:27;0.40;99.90
7030;DHT22;3556;53.500;10.176;2024-03-08T01:55:56;0.40;99.90
7030;DHT22;3556;53.500;10.176;2024-03-08T01:58:23;0.40;99.90
7030;DHT22;3556;53.500;10.176;2024-03-08T02:00:49;0.40;99.90
7030;DHT22;3556;53.500;10.176;2024-03-08T02:03:18;0.30;99.90
7030;DHT22;3556;53.500;10.176;2024-03-08T02:05:44;0.30;99.90
7030;DHT22;3556;53.500;10.176;2024-03-08T02:08:10;0.30;99.90
7030;DHT22;3556;53.500;10.176;2024-03-08T02:10:43;0.20;99.90
7030;DHT22;3556;53.500;10.176;2024-03-08T02:13:09;0.20;99.90
7030;DHT22;3556;53.500;10.176;2024-03-08T02:18:17;0.20;99.90
7030;DHT22;3556;53.500;10.176;2024-03-08T02:20:44;0.10;99.90
7030;DHT22;3556;53.500;10.176;2024-03-08T02:23:09;0.10;99.90
7030;DHT22;3556;53.500;10.176;2024-03-08T02:25:35;0.10;99.90
7030;DHT22;3556;53.500;10.176;2024-03-08T02:28:01;0.10;99.90
7030;DHT22;3556;53.500;10.176;2024-03-08T02:30:27;0.10;99.90
7030;DHT22;3556;53.500;10.176;2024-03-08T02:32:55;0.10;99.90
7030;DHT22;3556;53.500;10.176;2024-03-08T02:35:21;0.00;99.90
7030;DHT22;3556;53.500;10.176;2024-03-08T02:37:46;0.00;99.90
7030;DHT22;3556;53.500;10.176;2024-03-08T02:40:13;0.10;99.90
7030;DHT22;3556;53.500;10.176;2024-03-08T02:42:39;0.00;99.90
7030;DHT22;3556;53.500;10.176;2024-03-08T02:45:05;0.00;99.90
7030;DHT22;3556;53.500;10.176;2024-03-08T02:47:31;0.00;99.90
7030;DHT22;3556;53.500;10.176;2024-03-08T02:49:57;0.00;99.90
7030;DHT22;3556;53.500;10.176;2024-03-08T02:52:23;0.00;99.90
7030;DHT22;3556;53.500;10.176;2024-03-08T02:54:48;-0.10;99.90
7030;DHT22;3556;53.500;10.176;2024-03-08T02:57:15;-0.10;99.90
7030;DHT22;3556;53.500;10.176;2024-03-08T02:59:41;-0.10;99.90
7030;DHT22;3556;53.500;10.176;2024-03-08T03:02:07;0.00;99.90
7030;DHT22;3556;53.500;10.176;2024-03-08T03:04:32;-0.10;99.90
7030;DHT22;3556;53.500;10.176;2024-03-08T03:07:00;-0.10;99.90
7030;DHT22;3556;53.500;10.176;2024-03-08T03:09:26;-0.10;99.90
7030;DHT22;3556;53.500;10.176;2024-03-08T03:11:53;-0.10;99.90
7030;DHT22;3556;53.500;10.176;2024-03-08T03:14:21;-0.10;99.90
7030;DHT22;3556;53.500;10.176;2024-03-08T03:16:47;-0.10;99.90
7030;DHT22;3556;53.500;10.176;2024-03-08T03:19:12;-0.10;99.90
7030;DHT22;3556;53.500;10.176;2024-03-08T03:21:38;-0.10;99.90
7030;DHT22;3556;53.500;10.176;2024-03-08T03:24:04;-0.10;99.90
7030;DHT22;3556;53.500;10.176;2024-03-08T03:26:38;-0.10;99.90
7030;DHT22;3556;53.500;10.176;2024-03-08T03:29:05;-0.20;99.90
7030;DHT22;3556;53.500;10.176;2024-03-08T03:31:31;-0.20;99.90
7030;DHT22;3556;53.500;10.176;2024-03-08T03:33:57;-0.30;99.90
7030;DHT22;3556;53.500;10.176;2024-03-08T03:36:29;-0.20;99.90
7030;DHT22;3556;53.500;10.176;2024-03-08T03:38:55;-0.20;99.90
7030;DHT22;3556;53.500;10.176;2024-03-08T03:41:31;-0.20;99.90
7030;DHT22;3556;53.500;10.176;2024-03-08T03:43:56;-0.20;99.90
7030;DHT22;3556;53.500;10.176;2024-03-08T03:46:22;-0.20;99.90
7030;DHT22;3556;53.500;10.176;2024-03-08T03:48:48;-0.30;99.90
7030;DHT22;3556;53.500;10.176;2024-03-08T03:51:13;-0.20;99.90
7030;DHT22;3556;53.500;10.176;2024-03-08T03:53:40;-0.30;99.90
7030;DHT22;3556;53.500;10.176;2024-03-08T03:56:07;-0.30;99.90
7030;DHT22;3556;53.500;10.176;2024-03-08T03:58:33;-0.30;99.90
7030;DHT22;3556;53.500;10.176;2024-03-08T04:00:58;-0.30;99.90
7030;DHT22;3556;53.500;10.176;2024-03-08T04:03:24;-0.40;99.90
7030;DHT22;3556;53.500;10.176;2024-03-08T04:05:49;-0.40;99.90
7030;DHT22;3556;53.500;10.176;2024-03-08T04:08:16;-0.40;99.90
7030;DHT22;3556;53.500;10.176;2024-03-08T04:10:42;-0.40;99.90
7030;DHT22;3556;53.500;10.176;2024-03-08T04:13:08;-0.50;99.90
7030;DHT22;3556;53.500;10.176;2024-03-08T04:15:35;-0.50;99.90
7030;DHT22;3556;53.500;10.176;2024-03-08T04:18:00;-0.50;99.90
7030;DHT22;3556;53.500;10.176;2024-03-08T04:20:27;-0.50;99.90
7030;DHT22;3556;53.500;10.176;2024-03-08T04:22:52;-0.50;99.90
7030;DHT22;3556;53.500;10.176;2024-03-08T04:25:18;-0.50;99.90
7030;DHT22;3556;53.500;10.176;2024-03-08T04:27:44;-0.60;99.90
7030;DHT22;3556;53.500;10.176;2024-03-08T04:30:11;-0.60;99.90
7030;DHT22;3556;53.500;10.176;2024-03-08T04:32:37;-0.60;99.90
7030;DHT22;3556;53.500;10.176;2024-03-08T04:35:03;-0.60;99.90
7030;DHT22;3556;53.500;10.176;2024-03-08T04:37:29;-0.60;99.90
7030;DHT22;3556;53.500;10.176;2024-03-08T04:39:55;-0.60;99.90
7030;DHT22;3556;53.500;10.176;2024-03-08T04:42:21;-0.60;99.90
7030;DHT22;3556;53.500;10.176;2024-03-08T04:44:47;-0.60;99.90
7030;DHT22;3556;53.500;10.176;2024-03-08T04:47:12;-0.60;99.90
7030;DHT22;3556;53.500;10.176;2024-03-08T04:49:38;-0.60;99.90
7030;DHT22;3556;53.500;10.176;2024-03-08T04:52:04;-0.60;99.90
7030;DHT22;3556;53.500;10.176;2024-03-08T04:54:30;-0.60;99.90
7030;DHT22;3556;53.500;10.176;2024-03-08T04:56:56;-0.60;99.90
7030;DHT22;3556;53.500;10.176;2024-03-08T04:59:21;-0.70;99.90
7030;DHT22;3556;53.500;10.176;2024-03-08T05:01:47;-0.70;99.90
7030;DHT22;3556;53.500;10.176;2024-03-08T05:04:13;-0.70;99.90
7030;DHT22;3556;53.500;10.176;2024-03-08T05:06:39;-0.70;99.90
7030;DHT22;3556;53.500;10.176;2024-03-08T05:09:05;-0.70;99.90
7030;DHT22;3556;53.500;10.176;2024-03-08T05:11:40;-0.70;99.90
7030;DHT22;3556;53.500;10.176;2024-03-08T05:14:06;-0.70;99.90
7030;DHT22;3556;53.500;10.176;2024-03-08T05:16:32;-0.70;99.90
7030;DHT22;3556;53.500;10.176;2024-03-08T05:18:57;-0.70;99.90
7030;DHT22;3556;53.500;10.176;2024-03-08T05:21:23;-0.70;99.90
7030;DHT22;3556;53.500;10.176;2024-03-08T05:23:49;-0.70;99.90
7030;DHT22;3556;53.500;10.176;2024-03-08T05:26:16;-0.70;99.90
7030;DHT22;3556;53.500;10.176;2024-03-08T05:28:41;-0.70;99.90
7030;DHT22;3556;53.500;10.176;2024-03-08T05:31:07;-0.70;99.90
7030;DHT22;3556;53.500;10.176;2024-03-08T05:33:33;-0.70;99.90
7030;DHT22;3556;53.500;10.176;2024-03-08T05:36:02;-0.70;99.90
7030;DHT22;3556;53.500;10.176;2024-03-08T05:38:28;-0.80;99.90
7030;DHT22;3556;53.500;10.176;2024-03-08T05:40:54;-0.80;99.90
7030;DHT22;3556;53.500;10.176;2024-03-08T05:43:20;-0.80;99.90
7030;DHT22;3556;53.500;10.176;2024-03-08T05:45:46;-0.80;99.90
7030;DHT22;3556;53.500;10.176;2024-03-08T05:48:13;-0.80;99.90
7030;DHT22;3556;53.500;10.176;2024-03-08T05:50:39;-0.80;99.90
7030;DHT22;3556;53.500;10.176;2024-03-08T05:53:04;-0.80;99.90
7030;DHT22;3556;53.500;10.176;2024-03-08T05:55:33;-0.80;99.90
7030;DHT22;3556;53.500;10.176;2024-03-08T05:58:02;-0.80;99.90
7030;DHT22;3556;53.500;10.176;2024-03-08T06:00:27;-0.80;99.90
7030;DHT22;3556;53.500;10.176;2024-03-08T06:02:53;-0.80;99.90
7030;DHT22;3556;53.500;10.176;2024-03-08T06:05:19;-0.80;99.90
7030;DHT22;3556;53.500;10.176;2024-03-08T06:07:45;-0.80;99.90
7030;DHT22;3556;53.500;10.176;2024-03-08T06:10:11;-0.80;99.90
7030;DHT22;3556;53.500;10.176;2024-03-08T06:12:40;-0.80;99.90
7030;DHT22;3556;53.500;10.176;2024-03-08T06:15:07;-0.70;99.90
7030;DHT22;3556;53.500;10.176;2024-03-08T06:17:34;-0.70;99.90
7030;DHT22;3556;53.500;10.176;2024-03-08T06:20:00;-0.70;99.90
7030;DHT22;3556;53.500;10.176;2024-03-08T06:22:26;-0.70;99.90
7030;DHT22;3556;53.500;10.176;2024-03-08T06:24:51;-0.70;99.90
7030;DHT22;3556;53.500;10.176;2024-03-08T06:27:19;-0.70;99.90
7030;DHT22;3556;53.500;10.176;2024-03-08T06:29:45;-0.70;99.90
7030;DHT22;3556;53.500;10.176;2024-03-08T06:32:10;-0.70;99.90
7030;DHT22;3556;53.500;10.176;2024-03-08T06:34:36;-0.70;99.90
7030;DHT22;3556;53.500;10.176;2024-03-08T06:37:02;-0.60;99.90
7030;DHT22;3556;53.500;10.176;2024-03-08T06:39:27;-0.60;99.90
7030;DHT22;3556;53.500;10.176;2024-03-08T06:41:57;-0.60;99.90
7030;DHT22;3556;53.500;10.176;2024-03-08T06:44:23;-0.60;99.90
7030;DHT22;3556;53.500;10.176;2024-03-08T06:46:48;-0.50;99.90
7030;DHT22;3556;53.500;10.176;2024-03-08T06:49:14;-0.50;99.90
7030;DHT22;3556;53.500;10.176;2024-03-08T06:51:41;-0.40;99.90
7030;DHT22;3556;53.500;10.176;2024-03-08T06:54:07;-0.40;99.90
7030;DHT22;3556;53.500;10.176;2024-03-08T06:56:34;-0.30;99.90
7030;DHT22;3556;53.500;10.176;2024-03-08T06:59:00;-0.30;99.90
7030;DHT22;3556;53.500;10.176;2024-03-08T07:01:28;-0.20;99.90
7030;DHT22;3556;53.500;10.176;2024-03-08T07:03:57;-0.10;99.90
7030;DHT22;3556;53.500;10.176;2024-03-08T07:06:23;-0.10;99.90
7030;DHT22;3556;53.500;10.176;2024-03-08T07:08:49;0.00;99.90
7030;DHT22;3556;53.500;10.176;2024-03-08T07:11:14;0.10;99.90
7030;DHT22;3556;53.500;10.176;2024-03-08T07:13:44;0.20;99.90
7030;DHT22;3556;53.500;10.176;2024-03-08T07:16:10;0.30;99.90
7030;DHT22;3556;53.500;10.176;2024-03-08T07:18:37;0.40;99.90
7030;DHT22;3556;53.500;10.176;2024-03-08T07:21:05;0.50;99.90
7030;DHT22;3556;53.500;10.176;2024-03-08T07:23:31;0.60;99.90
7030;DHT22;3556;53.500;10.176;2024-03-08T07:26:15;0.70;99.90
7030;DHT22;3556;53.500;10.176;2024-03-08T07:28:41;0.80;99.90
7030;DHT22;3556;53.500;10.176;2024-03-08T07:31:07;0.90;99.90
7030;DHT22;3556;53.500;10.176;2024-03-08T07:33:42;1.00;99.90
7030;DHT22;3556;53.500;10.176;2024-03-08T07:36:07;1.10;99.90
7030;DHT22;3556;53.500;10.176;2024-03-08T07:38:34;1.20;99.90
7030;DHT22;3556;53.500;10.176;2024-03-08T07:41:00;1.30;99.90
7030;DHT22;3556;53.500;10.176;2024-03-08T07:43:26;1.40;99.90
7030;DHT22;3556;53.500;10.176;2024-03-08T07:45:52;1.60;99.90
7030;DHT22;3556;53.500;10.176;2024-03-08T07:48:20;1.70;99.90
7030;DHT22;3556;53.500;10.176;2024-03-08T07:50:46;1.80;99.90
7030;DHT22;3556;53.500;10.176;2024-03-08T07:53:12;1.90;83.20
7030;DHT22;3556;53.500;10.176;2024-03-08T07:55:37;2.10;37.90
7030;DHT22;3556;53.500;10.176;2024-03-08T07:58:05;2.20;23.60
7030;DHT22;3556;53.500;10.176;2024-03-08T08:00:31;2.30;1.00
7030;DHT22;3556;53.500;10.176;2024-03-08T08:02:57;2.40;1.00
7030;DHT22;3556;53.500;10.176;2024-03-08T08:05:23;2.50;1.00
7030;DHT22;3556;53.500;10.176;2024-03-08T08:07:48;2.70;1.00
7030;DHT22;3556;53.500;10.176;2024-03-08T08:10:15;2.70;1.00
7030;DHT22;3556;53.500;10.176;2024-03-08T08:12:50;2.90;1.00
7030;DHT22;3556;53.500;10.176;2024-03-08T08:15:19;3.00;1.00
7030;DHT22;3556;53.500;10.176;2024-03-08T08:17:45;3.20;1.00
7030;DHT22;3556;53.500;10.176;2024-03-08T08:20:12;3.30;99.90
7030;DHT22;3556;53.500;10.176;2024-03-08T08:22:41;3.40;99.90
7030;DHT22;3556;53.500;10.176;2024-03-08T08:25:08;3.50;99.90
7030;DHT22;3556;53.500;10.176;2024-03-08T08:27:35;3.60;1.00
7030;DHT22;3556;53.500;10.176;2024-03-08T08:30:05;3.70;99.90
7030;DHT22;3556;53.500;10.176;2024-03-08T08:32:34;3.90;1.00
7030;DHT22;3556;53.500;10.176;2024-03-08T08:35:00;4.10;99.90
7030;DHT22;3556;53.500;10.176;2024-03-08T08:37:26;4.30;99.90
7030;DHT22;3556;53.500;10.176;2024-03-08T08:39:51;4.50;99.90
7030;DHT22;3556;53.500;10.176;2024-03-08T08:42:18;4.60;99.90
7030;DHT22;3556;53.500;10.176;2024-03-08T08:44:43;4.80;1.00
7030;DHT22;3556;53.500;10.176;2024-03-08T08:47:09;5.00;1.00
7030;DHT22;3556;53.500;10.176;2024-03-08T08:49:34;5.10;1.00
7030;DHT22;3556;53.500;10.176;2024-03-08T08:52:00;5.10;1.00
7030;DHT22;3556;53.500;10.176;2024-03-08T08:54:26;5.20;99.90
7030;DHT22;3556;53.500;10.176;2024-03-08T08:56:53;5.30;99.90
7030;DHT22;3556;53.500;10.176;2024-03-08T08:59:19;5.30;1.00
7030;DHT22;3556;53.500;10.176;2024-03-08T09:01:45;5.50;1.00
7030;DHT22;3556;53.500;10.176;2024-03-08T09:04:15;5.50;99.90
7030;DHT22;3556;53.500;10.176;2024-03-08T09:06:41;5.60;1.00
7030;DHT22;3556;53.500;10.176;2024-03-08T09:09:07;5.50;99.90
7030;DHT22;3556;53.500;10.176;2024-03-08T09:11:39;5.70;1.00
7030;DHT22;3556;53.500;10.176;2024-03-08T09:14:08;5.80;99.90
7030;DHT22;3556;53.500;10.176;2024-03-08T09:16:34;5.80;49.10
7030;DHT22;3556;53.500;10.176;2024-03-08T09:19:00;5.80;99.90
7030;DHT22;3556;53.500;10.176;2024-03-08T09:21:25;6.00;99.90
7030;DHT22;3556;53.500;10.176;2024-03-08T09:23:52;6.10;1.00
7030;DHT22;3556;53.500;10.176;2024-03-08T09:26:18;6.10;59.00
7030;DHT22;3556;53.500;10.176;2024-03-08T09:28:44;6.20;99.90
7030;DHT22;3556;53.500;10.176;2024-03-08T09:31:11;6.40;99.90
7030;DHT22;3556;53.500;10.176;2024-03-08T09:33:37;6.40;1.00
7030;DHT22;3556;53.500;10.176;2024-03-08T09:36:06;6.50;1.00
7030;DHT22;3556;53.500;10.176;2024-03-08T09:38:33;6.50;1.00
7030;DHT22;3556;53.500;10.176;2024-03-08T09:41:00;6.50;1.00
7030;DHT22;3556;53.500;10.176;2024-03-08T09:43:29;6.60;1.00
7030;DHT22;3556;53.500;10.176;2024-03-08T09:45:57;6.70;1.00
7030;DHT22;3556;53.500;10.176;2024-03-08T09:48:23;6.80;1.00
7030;DHT22;3556;53.500;10.176;2024-03-08T09:50:48;6.90;1.00
7030;DHT22;3556;53.500;10.176;2024-03-08T09:53:14;7.00;1.00
7030;DHT22;3556;53.500;10.176;2024-03-08T09:55:40;7.10;1.00
7030;DHT22;3556;53.500;10.176;2024-03-08T09:58:12;7.10;99.90
7030;DHT22;3556;53.500;10.176;2024-03-08T10:00:56;7.10;99.90
7030;DHT22;3556;53.500;10.176;2024-03-08T10:03:23;7.20;1.00
7030;DHT22;3556;53.500;10.176;2024-03-08T10:05:48;7.40;99.90
7030;DHT22;3556;53.500;10.176;2024-03-08T10:08:14;7.40;99.90
7030;DHT22;3556;53.500;10.176;2024-03-08T10:10:40;7.50;99.90
7030;DHT22;3556;53.500;10.176;2024-03-08T10:13:09;7.60;99.90
7030;DHT22;3556;53.500;10.176;2024-03-08T10:15:36;7.70;99.90
7030;DHT22;3556;53.500;10.176;2024-03-08T10:18:04;7.70;99.90
7030;DHT22;3556;53.500;10.176;2024-03-08T10:20:33;7.90;99.90
7030;DHT22;3556;53.500;10.176;2024-03-08T10:23:02;7.90;99.90
7030;DHT22;3556;53.500;10.176;2024-03-08T10:25:33;8.00;99.90
7030;DHT22;3556;53.500;10.176;2024-03-08T10:28:00;8.00;99.90
7030;DHT22;3556;53.500;10.176;2024-03-08T10:30:25;8.20;99.90
7030;DHT22;3556;53.500;10.176;2024-03-08T10:32:51;8.30;99.80
7030;DHT22;3556;53.500;10.176;2024-03-08T10:35:17;8.40;99.90
7030;DHT22;3556;53.500;10.176;2024-03-08T10:37:47;8.40;99.90
7030;DHT22;3556;53.500;10.176;2024-03-08T10:40:17;8.40;99.90
7030;DHT22;3556;53.500;10.176;2024-03-08T10:48:09;8.90;11.50
7030;DHT22;3556;53.500;10.176;2024-03-08T10:50:36;9.00;1.00
7030;DHT22;3556;53.500;10.176;2024-03-08T10:53:06;9.10;6.80
7030;DHT22;3556;53.500;10.176;2024-03-08T10:55:33;9.00;21.00
7030;DHT22;3556;53.500;10.176;2024-03-08T10:57:59;9.00;1.00
7030;DHT22;3556;53.500;10.176;2024-03-08T11:00:26;8.90;1.00
7030;DHT22;3556;53.500;10.176;2024-03-08T11:02:53;9.00;1.00
7030;DHT22;3556;53.500;10.176;2024-03-08T11:05:38;9.00;1.00
7030;DHT22;3556;53.500;10.176;2024-03-08T11:08:22;9.20;1.00
7030;DHT22;3556;53.500;10.176;2024-03-08T11:10:52;9.20;1.00
7030;DHT22;3556;53.500;10.176;2024-03-08T11:13:36;9.40;1.00
7030;DHT22;3556;53.500;10.176;2024-03-08T11:16:48;9.50;41.00
7030;DHT22;3556;53.500;10.176;2024-03-08T11:18:49;9.70;1.00
7030;DHT22;3556;53.500;10.176;2024-03-08T11:21:14;9.70;1.00
7030;DHT22;3556;53.500;10.176;2024-03-08T11:23:40;9.90;1.00
7030;DHT22;3556;53.500;10.176;2024-03-08T11:26:20;10.10;1.00
7030;DHT22;3556;53.500;10.176;2024-03-08T11:28:46;10.20;1.00
7030;DHT22;3556;53.500;10.176;2024-03-08T11:33:39;10.30;1.00
7030;DHT22;3556;53.500;10.176;2024-03-08T11:36:13;10.40;1.00
7030;DHT22;3556;53.500;10.176;2024-03-08T11:38:45;10.20;1.00
7030;DHT22;3556;53.500;10.176;2024-03-08T11:41:22;10.00;1.00
7030;DHT22;3556;53.500;10.176;2024-03-08T11:43:50;10.00;1.00
7030;DHT22;3556;53.500;10.176;2024-03-08T11:46:26;10.30;1.00
7030;DHT22;3556;53.500;10.176;2024-03-08T11:48:54;10.60;1.00
7030;DHT22;3556;53.500;10.176;2024-03-08T11:51:21;10.80;1.00
7030;DHT22;3556;53.500;10.176;2024-03-08T11:53:49;10.80;1.00
7030;DHT22;3556;53.500;10.176;2024-03-08T11:56:16;10.70;1.00
7030;DHT22;3556;53.500;10.176;2024-03-08T11:58:42;11.00;1.00
7030;DHT22;3556;53.500;10.176;2024-03-08T12:01:17;11.10;1.00
7030;DHT22;3556;53.500;10.176;2024-03-08T12:03:43;11.10;1.00
7030;DHT22;3556;53.500;10.176;2024-03-08T12:06:10;11.10;1.00
7030;DHT22;3556;53.500;10.176;2024-03-08T12:08:36;11.40;1.00
7030;DHT22;3556;53.500;10.176;2024-03-08T12:11:04;11.50;1.00
7030;DHT22;3556;53.500;10.176;2024-03-08T12:13:34;11.90;1.00
7030;DHT22;3556;53.500;10.176;2024-03-08T12:16:03;12.20;1.00
7030;DHT22;3556;53.500;10.176;2024-03-08T12:18:37;12.20;1.00
7030;DHT22;3556;53.500;10.176;2024-03-08T12:21:10;12.50;1.00
7030;DHT22;3556;53.500;10.176;2024-03-08T12:23:38;12.50;1.00
7030;DHT22;3556;53.500;10.176;2024-03-08T12:26:12;12.50;1.00
7030;DHT22;3556;53.500;10.176;2024-03-08T12:28:40;12.60;1.00
7030;DHT22;3556;53.500;10.176;2024-03-08T12:31:07;12.80;1.00
7030;DHT22;3556;53.500;10.176;2024-03-08T12:33:56;13.30;1.00
7030;DHT22;3556;53.500;10.176;2024-03-08T12:36:24;13.50;1.00
7030;DHT22;3556;53.500;10.176;2024-03-08T12:38:51;13.40;1.00
7030;DHT22;3556;53.500;10.176;2024-03-08T12:41:20;13.40;1.00
7030;DHT22;3556;53.500;10.176;2024-03-08T12:43:47;13.70;1.00
7030;DHT22;3556;53.500;10.176;2024-03-08T12:46:16;13.90;1.00
7030;DHT22;3556;53.500;10.176;2024-03-08T12:48:43;13.80;1.00
7030;DHT22;3556;53.500;10.176;2024-03-08T12:51:13;13.60;99.90
7030;DHT22;3556;53.500;10.176;2024-03-08T12:53:38;13.60;1.00
7030;DHT22;3556;53.500;10.176;2024-03-08T12:56:06;13.60;1.00
7030;DHT22;3556;53.500;10.176;2024-03-08T12:58:34;13.50;99.90
7030;DHT22;3556;53.500;10.176;2024-03-08T13:01:02;13.30;1.00
7030;DHT22;3556;53.500;10.176;2024-03-08T13:03:30;13.60;1.00
7030;DHT22;3556;53.500;10.176;2024-03-08T13:05:57;13.60;1.00
7030;DHT22;3556;53.500;10.176;2024-03-08T13:08:22;13.80;1.00
7030;DHT22;3556;53.500;10.176;2024-03-08T13:10:50;14.30;1.00
7030;DHT22;3556;53.500;10.176;2024-03-08T13:13:16;14.70;1.00
7030;DHT22;3556;53.500;10.176;2024-03-08T13:15:45;15.20;1.00
7030;DHT22;3556;53.500;10.176;2024-03-08T13:18:11;15.50;1.00
7030;DHT22;3556;53.500;10.176;2024-03-08T13:20:37;15.90;99.90
7030;DHT22;3556;53.500;10.176;2024-03-08T13:23:04;15.90;99.90
7030;DHT22;3556;53.500;10.176;2024-03-08T13:25:31;16.00;99.90
7030;DHT22;3556;53.500;10.176;2024-03-08T13:27:57;15.90;99.90
7030;DHT22;3556;53.500;10.176;2024-03-08T13:30:26;15.60;99.90
7030;DHT22;3556;53.500;10.176;2024-03-08T13:32:52;15.80;99.90
7030;DHT22;3556;53.500;10.176;2024-03-08T13:35:19;15.80;99.90
7030;DHT22;3556;53.500;10.176;2024-03-08T13:37:50;15.80;99.90
7030;DHT22;3556;53.500;10.176;2024-03-08T13:40:17;16.10;99.90
7030;DHT22;3556;53.500;10.176;2024-03-08T13:42:49;16.10;99.90
7030;DHT22;3556;53.500;10.176;2024-03-08T13:45:15;16.40;99.90
7030;DHT22;3556;53.500;10.176;2024-03-08T13:47:47;16.90;99.90
7030;DHT22;3556;53.500;10.176;2024-03-08T13:50:12;17.00;99.90
7030;DHT22;3556;53.500;10.176;2024-03-08T13:52:39;17.00;99.90
7030;DHT22;3556;53.500;10.176;2024-03-08T13:55:05;17.20;99.90
7030;DHT22;3556;53.500;10.176;2024-03-08T13:57:32;17.40;99.90
7030;DHT22;3556;53.500;10.176;2024-03-08T13:59:58;17.30;99.90
7030;DHT22;3556;53.500;10.176;2024-03-08T14:02:23;17.20;99.90
7030;DHT22;3556;53.500;10.176;2024-03-08T14:04:53;16.80;99.90
7030;DHT22;3556;53.500;10.176;2024-03-08T14:07:20;16.90;99.90
7030;DHT22;3556;53.500;10.176;2024-03-08T14:09:46;16.80;99.90
7030;DHT22;3556;53.500;10.176;2024-03-08T14:12:11;17.00;99.90
7030;DHT22;3556;53.500;10.176;2024-03-08T14:14:37;17.50;99.90
7030;DHT22;3556;53.500;10.176;2024-03-08T14:17:03;17.70;99.90
7030;DHT22;3556;53.500;10.176;2024-03-08T14:19:29;17.80;99.90
7030;DHT22;3556;53.500;10.176;2024-03-08T14:21:59;17.40;99.90
7030;DHT22;3556;53.500;10.176;2024-03-08T14:24:25;16.70;99.90
7030;DHT22;3556;53.500;10.176;2024-03-08T14:26:51;17.00;99.90
7030;DHT22;3556;53.500;10.176;2024-03-08T14:29:17;17.20;99.90
7030;DHT22;3556;53.500;10.176;2024-03-08T14:31:44;17.00;99.90
7030;DHT22;3556;53.500;10.176;2024-03-08T14:34:10;16.20;99.90
7030;DHT22;3556;53.500;10.176;2024-03-08T14:36:36;16.10;99.90
7030;DHT22;3556;53.500;10.176;2024-03-08T14:39:03;16.10;99.90
7030;DHT22;3556;53.500;10.176;2024-03-08T14:41:28;16.30;99.90
7030;DHT22;3556;53.500;10.176;2024-03-08T14:43:55;16.00;99.90
7030;DHT22;3556;53.500;10.176;2024-03-08T14:46:22;16.00;99.90
7030;DHT22;3556;53.500;10.176;2024-03-08T14:48:54;16.10;99.90
7030;DHT22;3556;53.500;10.176;2024-03-08T14:51:20;16.20;99.90
7030;DHT22;3556;53.500;10.176;2024-03-08T14:53:48;16.50;99.90
7030;DHT22;3556;53.500;10.176;2024-03-08T14:56:15;16.40;99.90
7030;DHT22;3556;53.500;10.176;2024-03-08T14:58:47;16.40;99.90
7030;DHT22;3556;53.500;10.176;2024-03-08T15:01:15;16.40;99.90
7030;DHT22;3556;53.500;10.176;2024-03-08T15:03:44;16.30;99.90
7030;DHT22;3556;53.500;10.176;2024-03-08T15:06:10;16.30;99.90
7030;DHT22;3556;53.500;10.176;2024-03-08T15:08:36;16.20;99.90
7030;DHT22;3556;53.500;10.176;2024-03-08T15:11:02;15.90;99.90
7030;DHT22;3556;53.500;10.176;2024-03-08T15:13:28;15.60;99.90
7030;DHT22;3556;53.500;10.176;2024-03-08T15:15:59;16.10;99.90
7030;DHT22;3556;53.500;10.176;2024-03-08T15:18:25;16.20;99.90
7030;DHT22;3556;53.500;10.176;2024-03-08T15:20:54;16.00;99.90
7030;DHT22;3556;53.500;10.176;2024-03-08T15:23:20;16.10;99.90
7030;DHT22;3556;53.500;10.176;2024-03-08T15:25:47;16.30;99.90
7030;DHT22;3556;53.500;10.176;2024-03-08T15:28:15;16.30;99.90
7030;DHT22;3556;53.500;10.176;2024-03-08T15:30:43;16.00;99.90
7030;DHT22;3556;53.500;10.176;2024-03-08T15:33:12;15.60;99.90
7030;DHT22;3556;53.500;10.176;2024-03-08T15:35:41;15.20;99.90
7030;DHT22;3556;53.500;10.176;2024-03-08T15:38:07;14.70;99.90
7030;DHT22;3556;53.500;10.176;2024-03-08T15:40:33;14.40;99.90
7030;DHT22;3556;53.500;10.176;2024-03-08T15:43:00;14.00;99.90
7030;DHT22;3556;53.500;10.176;2024-03-08T15:45:26;13.90;99.90
7030;DHT22;3556;53.500;10.176;2024-03-08T15:47:57;13.50;99.90
7030;DHT22;3556;53.500;10.176;2024-03-08T15:50:23;13.20;99.90
7030;DHT22;3556;53.500;10.176;2024-03-08T15:52:49;12.90;99.90
7030;DHT22;3556;53.500;10.176;2024-03-08T15:55:16;12.20;99.90
7030;DHT22;3556;53.500;10.176;2024-03-08T15:57:47;11.60;99.90
7030;DHT22;3556;53.500;10.176;2024-03-08T16:00:17;11.10;99.90
7030;DHT22;3556;53.500;10.176;2024-03-08T16:03:05;10.90;99.90
7030;DHT22;3556;53.500;10.176;2024-03-08T16:05:37;10.50;99.90
7030;DHT22;3556;53.500;10.176;2024-03-08T16:08:04;10.40;1.00